createdAt,value
2023-05-15T00:01:12.674Z,12.25
2023-05-15T00:06:16.199Z,12.14
2023-05-15T00:11:19.705Z,12.05
2023-05-15T00:16:23.148Z,11.96
2023-05-15T00:21:26.735Z,11.88
2023-05-15T00:26:31.213Z,11.83
2023-05-15T00:31:34.782Z,11.78
2023-05-15T00:36:38.427Z,11.73
2023-05-15T00:41:43.820Z,11.70
2023-05-15T00:46:47.727Z,11.68
2023-05-15T00:51:52.241Z,11.68
2023-05-15T00:57:00.082Z,11.66
2023-05-15T01:02:04.384Z,11.68
2023-05-15T01:07:07.821Z,11.68
2023-05-15T01:12:12.341Z,11.72
2023-05-15T01:17:15.961Z,11.75
2023-05-15T01:22:45.193Z,11.82
2023-05-15T01:28:01.004Z,11.82
2023-05-15T01:33:28.763Z,11.85
2023-05-15T01:39:00.028Z,11.91
2023-05-15T01:44:08.796Z,11.95
2023-05-15T01:49:14.447Z,11.99
2023-05-15T01:54:19.209Z,12.03
2023-05-15T01:59:23.819Z,12.10
2023-05-15T02:04:27.861Z,12.14
2023-05-15T02:09:33.257Z,12.19
2023-05-15T02:14:37.950Z,12.23
2023-05-15T02:19:41.364Z,12.27
2023-05-15T02:24:45.287Z,12.32
2023-05-15T02:30:07.562Z,12.38
2023-05-15T02:35:19.961Z,12.42
2023-05-15T02:40:25.447Z,12.46
2023-05-15T02:45:29.691Z,12.47
2023-05-15T02:50:33.272Z,12.47
2023-05-15T02:55:38.538Z,12.48
2023-05-15T03:00:41.950Z,12.48
2023-05-15T03:05:45.457Z,12.48
2023-05-15T03:10:48.882Z,12.48
2023-05-15T03:15:53.730Z,12.49
2023-05-15T03:20:57.029Z,12.53
2023-05-15T03:26:00.447Z,12.55
2023-05-15T03:31:05.304Z,12.58
2023-05-15T03:36:09.163Z,12.63
2023-05-15T03:41:12.534Z,12.68
2023-05-15T03:46:16.501Z,12.74
2023-05-15T03:51:19.968Z,12.80
2023-05-15T03:56:23.789Z,12.88
2023-05-15T04:01:27.999Z,12.97
2023-05-15T04:06:32.060Z,13.05
2023-05-15T04:11:35.260Z,13.13
2023-05-15T04:16:38.698Z,13.26
2023-05-15T04:21:42.188Z,13.36
2023-05-15T04:26:45.683Z,13.46
2023-05-15T04:31:49.256Z,13.62
2023-05-15T04:36:52.630Z,13.78
2023-05-15T04:41:56.146Z,13.93
2023-05-15T04:46:59.671Z,14.03
2023-05-15T04:52:03.279Z,14.15
2023-05-15T04:57:06.968Z,14.30
2023-05-15T05:02:10.723Z,14.49
2023-05-15T05:07:14.343Z,14.69
2023-05-15T05:12:18.982Z,14.88
2023-05-15T05:17:22.872Z,15.00
2023-05-15T05:22:26.528Z,15.16
2023-05-15T05:27:29.936Z,15.33
2023-05-15T05:32:33.457Z,15.44
2023-05-15T05:37:38.607Z,15.54
2023-05-15T05:42:43.042Z,15.72
2023-05-15T05:47:46.536Z,15.88
2023-05-15T05:52:50.589Z,16.07
2023-05-15T05:57:54.405Z,16.27
2023-05-15T06:02:59.811Z,16.49
2023-05-15T06:08:04.715Z,16.62
2023-05-15T06:13:08.132Z,16.84
2023-05-15T06:18:11.684Z,17.07
2023-05-15T06:23:15.266Z,17.18
2023-05-15T06:28:18.782Z,17.20
2023-05-15T06:33:22.502Z,17.23
2023-05-15T06:38:26.121Z,17.20
2023-05-15T06:43:29.435Z,17.12
2023-05-15T06:48:33.059Z,16.95
2023-05-15T06:53:36.569Z,16.85
2023-05-15T06:58:40.080Z,16.86
2023-05-15T07:03:43.845Z,16.91
2023-05-15T07:08:47.316Z,16.92
2023-05-15T07:13:52.576Z,16.91
2023-05-15T07:18:56.142Z,17.03
2023-05-15T07:23:59.709Z,17.31
2023-05-15T07:29:04.493Z,17.48
2023-05-15T07:34:08.073Z,17.52
2023-05-15T07:39:11.741Z,17.60
2023-05-15T07:44:15.097Z,17.68
2023-05-15T07:49:18.513Z,17.76
2023-05-15T07:54:22.358Z,17.89
2023-05-15T07:59:25.601Z,18.07
2023-05-15T08:04:29.337Z,18.17
2023-05-15T08:09:32.809Z,18.25
2023-05-15T08:14:36.377Z,18.17
2023-05-15T08:19:40.022Z,17.97
2023-05-15T08:24:43.432Z,17.94
2023-05-15T08:29:47.776Z,17.81
2023-05-15T08:34:51.193Z,17.65
2023-05-15T08:39:54.688Z,17.46
2023-05-15T08:44:59.848Z,17.22
2023-05-15T08:50:15.277Z,16.93
2023-05-15T08:55:18.765Z,16.75
2023-05-15T09:00:23.386Z,16.75
2023-05-15T09:05:27.740Z,16.79
2023-05-15T09:10:32.280Z,16.89
2023-05-15T09:15:37.426Z,17.02
2023-05-15T09:20:40.851Z,17.25
2023-05-15T09:25:47.426Z,17.62
2023-05-15T09:30:50.848Z,18.13
2023-05-15T09:35:54.255Z,18.76
2023-05-15T09:41:06.547Z,19.52
2023-05-15T09:46:13.191Z,20.10
2023-05-15T09:51:18.930Z,20.57
2023-05-15T09:56:22.776Z,20.89
2023-05-15T10:01:27.811Z,21.20
2023-05-15T10:06:42.812Z,21.49
2023-05-15T10:11:53.507Z,21.53
2023-05-15T10:16:57.610Z,21.42
2023-05-15T10:22:01.800Z,21.07
2023-05-15T10:27:06.861Z,20.42
2023-05-15T10:32:10.612Z,19.99
2023-05-15T10:37:15.248Z,19.59
2023-05-15T10:42:19.502Z,19.12
2023-05-15T10:47:23.179Z,18.81
2023-05-15T10:52:27.128Z,18.94
2023-05-15T10:57:30.578Z,19.13
2023-05-15T12:29:15.911Z,17.11
2023-05-15T12:34:17.995Z,16.91
2023-05-15T12:39:20.177Z,16.93
2023-05-15T12:44:26.456Z,16.88
2023-05-15T12:49:28.437Z,16.76
2023-05-15T12:54:30.634Z,16.56
2023-05-15T12:59:32.810Z,16.44
2023-05-15T13:04:34.995Z,16.32
2023-05-15T13:09:37.168Z,16.13
2023-05-15T13:14:39.251Z,15.94
2023-05-15T13:19:41.340Z,15.78
2023-05-15T13:24:45.970Z,15.64
2023-05-15T13:29:48.056Z,15.54
2023-05-15T13:34:54.232Z,15.53
2023-05-15T13:39:56.520Z,15.48
2023-05-15T13:44:58.811Z,15.37
2023-05-15T13:50:02.946Z,15.28
2023-05-15T13:55:06.560Z,15.14
2023-05-15T14:00:13.920Z,14.92
2023-05-15T14:05:17.688Z,14.69
2023-05-15T14:10:19.665Z,14.61
2023-05-15T14:15:21.749Z,14.61
2023-05-15T14:20:23.943Z,14.65
2023-05-15T14:25:26.114Z,14.70
2023-05-15T14:30:28.255Z,14.73
2023-05-15T14:35:30.383Z,14.69
2023-05-15T14:40:32.473Z,14.55
2023-05-15T14:45:34.549Z,14.41
2023-05-15T14:50:36.738Z,14.38
2023-05-15T14:55:38.808Z,14.41
2023-05-15T15:00:41.141Z,14.38
2023-05-15T15:05:43.589Z,14.34
2023-05-15T15:10:45.776Z,14.33
2023-05-15T15:15:48.102Z,14.28
2023-05-15T15:20:51.310Z,14.28
2023-05-15T15:25:53.360Z,14.33
2023-05-15T15:30:55.430Z,14.35
2023-05-15T15:35:57.612Z,14.34
2023-05-15T15:41:02.847Z,14.31
2023-05-15T15:46:05.381Z,14.29
2023-05-15T15:51:07.666Z,14.31
2023-05-15T15:56:09.775Z,14.25
2023-05-15T16:01:11.919Z,14.25
2023-05-15T16:06:14.079Z,14.20
2023-05-15T16:11:16.166Z,14.19
2023-05-15T16:16:18.306Z,14.18
2023-05-15T16:21:20.890Z,14.16
2023-05-15T16:26:23.543Z,14.14
2023-05-15T16:31:26.632Z,14.11
2023-05-15T16:36:28.711Z,14.09
2023-05-15T16:41:31.391Z,14.11
2023-05-15T16:46:33.910Z,14.10
2023-05-15T16:51:35.998Z,14.11
2023-05-15T16:56:38.224Z,14.17
2023-05-15T17:01:41.775Z,14.23
2023-05-15T17:07:07.889Z,14.30
2023-05-15T17:12:11.311Z,14.32
2023-05-15T17:17:13.503Z,14.33
2023-05-15T17:22:15.599Z,14.36
2023-05-15T17:27:40.945Z,14.40
2023-05-15T17:32:43.223Z,14.39
2023-05-15T17:37:45.336Z,14.36
2023-05-15T17:43:05.467Z,14.31
2023-05-15T17:48:07.567Z,14.29
2023-05-15T17:53:09.482Z,14.24
2023-05-15T17:58:11.485Z,14.23
2023-05-15T18:03:13.686Z,14.20
2023-05-15T18:08:15.956Z,14.19
2023-05-15T18:13:18.340Z,14.17
2023-05-15T18:18:20.424Z,14.15
2023-05-15T18:23:22.615Z,14.15
2023-05-15T18:28:29.792Z,14.13
2023-05-15T18:33:32.700Z,14.12
2023-05-15T18:38:35.618Z,14.15
2023-05-15T18:43:37.696Z,14.16
2023-05-15T18:48:40.432Z,14.15
2023-05-15T18:53:42.359Z,14.17
2023-05-15T18:58:46.933Z,14.19
2023-05-15T19:03:49.138Z,14.21
2023-05-15T19:08:53.436Z,14.22
2023-05-15T19:13:55.551Z,14.19
2023-05-15T19:18:57.800Z,14.24
2023-05-15T19:24:00.326Z,14.27
2023-05-15T19:29:03.782Z,14.28
2023-05-15T19:34:05.802Z,14.30
2023-05-15T19:39:07.971Z,14.27
2023-05-15T19:44:10.772Z,14.21
2023-05-15T19:49:34.113Z,14.14
2023-05-15T19:54:59.095Z,14.08
2023-05-15T20:00:05.349Z,14.05
2023-05-15T20:05:08.045Z,13.95
2023-05-15T20:10:10.853Z,13.90
2023-05-15T20:15:14.356Z,13.84
2023-05-15T20:20:17.369Z,13.84
2023-05-15T20:25:51.316Z,13.80
2023-05-15T20:30:56.390Z,13.79
2023-05-15T20:35:59.205Z,13.85
2023-05-15T20:41:01.228Z,13.84
2023-05-15T20:46:03.276Z,13.85
2023-05-15T20:51:05.374Z,13.82
2023-05-15T20:56:07.291Z,13.81
2023-05-15T21:01:09.282Z,13.77
2023-05-15T21:06:11.714Z,13.72
2023-05-15T21:11:13.794Z,13.63
2023-05-15T21:16:15.834Z,13.52
2023-05-15T21:21:18.248Z,13.43
2023-05-15T21:26:20.349Z,13.30
2023-05-15T21:31:22.377Z,13.19
2023-05-15T21:36:24.453Z,13.15
2023-05-15T21:41:26.437Z,13.13
2023-05-15T21:46:28.535Z,13.13
2023-05-15T21:51:30.558Z,13.09
2023-05-15T21:56:32.575Z,13.02
2023-05-15T22:01:35.695Z,12.92
2023-05-15T22:06:37.716Z,12.84
2023-05-15T22:11:39.916Z,12.77
2023-05-15T22:16:41.866Z,12.77
2023-05-15T22:21:44.163Z,12.71
2023-05-15T22:26:46.118Z,12.69
2023-05-15T22:31:48.176Z,12.69
2023-05-15T22:36:50.335Z,12.69
2023-05-15T22:41:52.518Z,12.74
2023-05-15T22:46:54.600Z,12.76
2023-05-15T22:51:57.980Z,12.75
2023-05-15T22:56:59.957Z,12.76
2023-05-15T23:02:01.943Z,12.76
2023-05-15T23:07:04.691Z,12.73
2023-05-15T23:12:06.907Z,12.71
2023-05-15T23:17:08.890Z,12.67
2023-05-15T23:22:11.243Z,12.66
2023-05-15T23:27:13.267Z,12.68
2023-05-15T23:32:15.382Z,12.79
2023-05-15T23:37:17.430Z,12.87
2023-05-15T23:42:19.393Z,12.92
2023-05-15T23:47:21.396Z,13.06
2023-05-15T23:52:23.322Z,13.12
2023-05-15T23:57:25.386Z,13.21
